Layland, West Virginia
Current Conditions -  °F | °C
As of 7:07 AM on Thursday 27 Nov 2014 (Local Time) from KBKW Reporting Station
Light Snow Light Snow  
Wind Chill: 27°   Ceiling: 200
Heat Index: 32°   Visibility: 2mi
Dew Point: 31°   Wind: 5mph
Humidity: 96%   Direction: 320°NW
Pressure: 29.98"   Gusts: NA
Location:  37.9°N, 80.99°W
Report Text: KBKW 271207Z AUTO 32004KT 2SM -SN BR OVC002 00/M01 A2998 RMK AO2 SNB1155 P0000 T00001006
Loading
Personal Weather Stations






























Interactive Weather Map New forecast layout! Learn more

10-Day Weather Forecast

Advertisements
Track Severe Weather on mobile